Barter Island, Barter Island LRRS Airport (PABA)

NameBarter Island LRRS Airport
CityBarter Island
CountryUnited States
ICAOPABA
IATABTI
Altitude1 m
CoordinatesGoogle Map
Live Air TrafficLiveATC.net
METARPABA 160552Z AUTO 09020G25KT 10SM OVC006 M05/M06 A3001
2018-10-16 05:52:00 Wind: East (90°) 10.29 m/s - Visibility: 16093.4 m - Temperature: -5 °C - Dew point: -6 °C - Humidity: 92.8% - Pressure: 1016.26 hPa
Statistics

The table below shows the detailed information of all flights to/from Barter Island, Barter Island LRRS Airport (PABA).